Time;durP1;ratioP1;P1;durP2;ratioP2;P2;SDS_P1;SDS_P2;PMS_P1;PMS_P2;Temp;Humidity;BMP_temperature;BMP_pressure;BME280_temperature;BME280_humidity;BME280_pressure;Samples;Min_cycle;Max_cycle;Signal;HPM_P1;HPM_P2
2021/12/07 00:01:47;;;;;;;6.70;6.00;;;4.30;84.00;;;;;;5098089;28;20474;-45
2021/12/07 00:04:13;;;;;;;5.80;4.90;;;4.30;83.80;;;;;;5098724;28;20690;-45
2021/12/07 00:06:39;;;;;;;6.00;5.20;;;4.30;83.70;;;;;;5098571;28;20434;-45
2021/12/07 00:09:07;;;;;;;6.33;5.47;;;4.30;83.60;;;;;;5098510;28;20219;-45
2021/12/07 00:11:33;;;;;;;5.43;4.90;;;4.30;83.60;;;;;;5098172;28;20423;-45
2021/12/07 00:14:00;;;;;;;7.07;5.17;;;4.30;83.50;;;;;;5100274;28;20436;-45
2021/12/07 00:16:27;;;;;;;5.60;4.67;;;4.30;83.50;;;;;;5106251;28;20889;-46
2021/12/07 00:18:53;;;;;;;5.23;4.73;;;4.30;83.40;;;;;;5098123;28;20442;-45
2021/12/07 00:21:20;;;;;;;6.07;5.47;;;4.30;83.30;;;;;;5097531;28;20426;-45
2021/12/07 00:23:49;;;;;;;6.03;5.53;;;4.30;83.40;;;;;;5096455;28;20429;-45
2021/12/07 00:26:15;;;;;;;6.70;4.97;;;4.30;83.30;;;;;;5097559;28;20426;-45
2021/12/07 00:28:42;;;;;;;7.27;5.87;;;4.30;83.40;;;;;;5079514;28;20545;-45
2021/12/07 00:31:20;;;;;;;5.80;5.20;;;4.20;83.60;;;;;;5097746;28;20430;-46
2021/12/07 00:33:52;;;;;;;6.37;5.77;;;4.20;83.90;;;;;;5097397;28;20431;-45
2021/12/07 00:36:19;;;;;;;6.23;5.50;;;4.20;84.30;;;;;;5097858;28;20437;-46
2021/12/07 00:38:45;;;;;;;7.73;5.70;;;4.20;84.60;;;;;;5098037;28;20480;-45
2021/12/07 00:41:11;;;;;;;7.43;6.30;;;4.20;85.00;;;;;;5097703;28;20434;-46
2021/12/07 00:43:37;;;;;;;9.00;6.17;;;4.20;85.10;;;;;;5099604;28;20432;-45
2021/12/07 00:46:03;;;;;;;4.77;3.63;;;4.20;85.50;;;;;;5107238;28;20634;-43
2021/12/07 00:48:29;;;;;;;4.63;3.60;;;4.50;94.90;;;;;;5097951;28;20208;-44
2021/12/07 00:50:56;;;;;;;4.50;4.10;;;6.00;99.90;;;;;;5097505;28;20429;-44
2021/12/07 00:53:24;;;;;;;4.30;3.90;;;7.00;99.90;;;;;;5097270;28;20556;-43
2021/12/07 00:55:53;;;;;;;5.10;4.60;;;7.80;99.90;;;;;;5097809;28;20427;-44
2021/12/07 00:58:23;;;;;;;4.13;3.23;;;8.50;99.90;;;;;;5108190;28;20431;-43
2021/12/07 01:01:02;;;;;;;4.03;3.50;;;9.30;99.90;;;;;;5105056;28;20473;-44
2021/12/07 01:03:29;;;;;;;5.00;4.50;;;9.80;99.50;;;;;;5110983;28;20440;-44
2021/12/07 01:06:07;;;;;;;4.00;3.60;;;9.80;95.30;;;;;;5113014;28;20704;-44
2021/12/07 01:25:03;;;;;;;5.67;5.17;;;6.10;85.30;;;;;;5100711;28;20486;-45
2021/12/07 01:27:28;;;;;;;5.00;4.50;;;5.90;86.30;;;;;;5100532;28;20455;-44
2021/12/07 01:30:13;;;;;;;5.10;4.60;;;5.60;87.00;;;;;;5101385;28;20420;-44
2021/12/07 01:32:57;;;;;;;5.10;4.60;;;5.40;87.50;;;;;;5101213;28;20418;-45
2021/12/07 02:01:48;;;;;;;6.60;6.00;;;4.20;92.00;;;;;;5121068;28;20428;-45
2021/12/07 02:04:13;;;;;;;5.70;4.63;;;4.20;92.20;;;;;;5121071;28;20407;-45
2021/12/07 02:10:07;;;;;;;5.10;4.60;;;4.20;92.30;;;;;;5124699;27;20195;-45
2021/12/07 02:12:43;;;;;;;5.27;4.63;;;4.20;92.40;;;;;;5140801;27;20933;-45
2021/12/07 02:15:11;;;;;;;5.10;4.57;;;4.30;92.40;;;;;;5140891;27;20465;-45
2021/12/07 02:17:37;;;;;;;5.23;4.73;;;4.20;92.40;;;;;;5141277;27;20398;-45
2021/12/07 02:20:04;;;;;;;5.10;4.60;;;4.20;92.50;;;;;;5140826;27;20899;-45
2021/12/07 02:22:30;;;;;;;4.43;4.03;;;4.20;92.60;;;;;;5141260;27;20434;-45
2021/12/07 02:24:56;;;;;;;4.50;3.80;;;4.20;92.60;;;;;;5140906;27;20401;-44
2021/12/07 02:27:22;;;;;;;4.37;3.80;;;4.20;92.80;;;;;;5140592;27;20888;-45
2021/12/07 02:29:47;;;;;;;4.90;4.23;;;4.20;92.90;;;;;;5140483;27;20168;-45
2021/12/07 02:32:13;;;;;;;5.03;4.53;;;4.20;93.00;;;;;;5140621;27;20175;-45
2021/12/07 02:34:43;;;;;;;4.77;3.87;;;4.10;93.00;;;;;;5140310;27;20248;-45
2021/12/07 02:37:09;;;;;;;4.37;3.97;;;4.10;93.10;;;;;;5140891;27;20176;-44
2021/12/07 02:39:40;;;;;;;4.23;3.80;;;4.20;93.20;;;;;;5127534;27;20863;-45
2021/12/07 02:42:06;;;;;;;3.93;3.50;;;4.20;93.20;;;;;;5120110;28;20611;-44
2021/12/07 02:44:32;;;;;;;3.57;3.20;;;4.10;93.20;;;;;;5119964;28;20683;-45
2021/12/07 02:46:58;;;;;;;3.00;2.70;;;4.10;93.30;;;;;;5119488;28;20426;-45
2021/12/07 02:49:23;;;;;;;2.97;2.23;;;4.10;93.30;;;;;;5118809;28;20547;-45
2021/12/07 02:51:49;;;;;;;2.50;2.17;;;4.20;93.50;;;;;;5119689;28;20251;-44
2021/12/07 02:54:15;;;;;;;2.20;1.90;;;4.20;93.60;;;;;;5118349;28;20520;-44
2021/12/07 02:56:40;;;;;;;2.63;2.20;;;4.20;93.70;;;;;;5119212;28;20573;-44
2021/12/07 02:59:06;;;;;;;2.87;2.20;;;4.20;93.90;;;;;;5118751;28;20191;-44
2021/12/07 03:01:36;;;;;;;3.37;1.90;;;4.20;93.90;;;;;;5119099;28;20654;-45
2021/12/07 03:04:08;;;;;;;2.37;1.50;;;4.20;94.00;;;;;;5119669;28;20172;-45
2021/12/07 03:07:36;;;;;;;1.97;1.53;;;4.20;94.10;;;;;;5119598;28;20426;-44
2021/12/07 03:26:22;;;;;;;1.67;1.50;;;4.10;94.70;;;;;;5118906;28;20425;-46
2021/12/07 03:28:51;;;;;;;2.30;1.73;;;4.10;94.80;;;;;;5110089;28;20474;-45
2021/12/07 03:31:17;;;;;;;1.70;1.20;;;4.10;94.90;;;;;;5098334;28;20533;-45
2021/12/07 03:33:43;;;;;;;2.00;1.50;;;4.00;94.90;;;;;;5098607;28;20422;-45
2021/12/07 03:36:10;;;;;;;1.60;1.30;;;4.00;95.00;;;;;;5098773;28;20423;-45
2021/12/07 03:38:37;;;;;;;1.67;1.20;;;4.00;95.10;;;;;;5103322;28;20740;-45
2021/12/07 03:41:03;;;;;;;1.70;1.60;;;4.00;95.20;;;;;;5118166;28;20498;-45
2021/12/07 03:43:29;;;;;;;2.20;1.73;;;4.00;95.20;;;;;;5118236;28;20414;-45
2021/12/07 03:45:54;;;;;;;2.37;1.53;;;4.10;95.20;;;;;;5118374;28;20440;-45
2021/12/07 03:48:20;;;;;;;1.23;1.00;;;4.10;95.10;;;;;;5117411;28;20207;-45
2021/12/07 03:50:46;;;;;;;1.70;1.40;;;4.10;95.40;;;;;;5117605;28;20371;-45
2021/12/07 03:53:12;;;;;;;1.80;1.20;;;4.10;95.00;;;;;;5117256;28;20676;-44
2021/12/07 03:55:39;;;;;;;2.17;1.30;;;4.10;95.00;;;;;;5116379;28;20295;-45
2021/12/07 03:58:05;;;;;;;1.47;1.10;;;4.20;95.00;;;;;;5116504;28;20695;-45
2021/12/07 04:00:34;;;;;;;1.33;0.90;;;4.20;95.00;;;;;;5115793;28;20434;-45
2021/12/07 04:03:03;;;;;;;1.83;1.40;;;4.20;95.00;;;;;;5118159;28;20414;-45
2021/12/07 04:05:29;;;;;;;2.17;1.57;;;4.20;94.90;;;;;;5118138;28;20465;-45
2021/12/07 04:07:55;;;;;;;2.60;2.00;;;4.30;94.90;;;;;;5118102;28;20504;-45
2021/12/07 04:10:22;;;;;;;2.43;1.80;;;4.30;94.80;;;;;;5118381;28;20430;-45
2021/12/07 04:12:49;;;;;;;2.13;1.83;;;4.20;94.80;;;;;;5118687;28;20517;-45
2021/12/07 04:15:16;;;;;;;2.20;1.60;;;4.20;94.80;;;;;;5117229;28;20422;-45
2021/12/07 04:17:42;;;;;;;4.13;1.73;;;4.20;94.80;;;;;;5118619;28;20500;-45
2021/12/07 04:20:10;;;;;;;2.43;1.90;;;4.20;94.80;;;;;;5118396;28;20445;-45
2021/12/07 04:22:35;;;;;;;2.00;1.80;;;4.20;94.80;;;;;;5118840;28;20441;-45
2021/12/07 04:25:03;;;;;;;2.67;1.80;;;4.20;95.20;;;;;;5117380;28;20455;-45
2021/12/07 04:27:30;;;;;;;2.47;1.73;;;4.20;94.90;;;;;;5116402;28;20168;-45
2021/12/07 04:29:56;;;;;;;1.63;1.20;;;4.20;94.90;;;;;;5116280;28;20421;-46
2021/12/07 04:32:21;;;;;;;2.03;1.27;;;4.20;94.90;;;;;;5115982;28;20433;-45
2021/12/07 04:34:47;;;;;;;1.53;1.30;;;4.20;94.90;;;;;;5119251;28;20176;-45
2021/12/07 04:37:12;;;;;;;3.30;1.40;;;4.10;94.80;;;;;;5120639;28;20196;-43
2021/12/07 04:39:38;;;;;;;3.60;1.67;;;4.20;94.90;;;;;;5115492;28;20192;-45
2021/12/07 04:42:04;;;;;;;1.80;1.23;;;4.20;94.90;;;;;;5110319;28;20189;-46
2021/12/07 04:44:31;;;;;;;1.77;1.20;;;4.20;94.90;;;;;;5102096;28;20637;-45
2021/12/07 04:47:17;;;;;;;1.37;0.90;;;4.10;94.80;;;;;;5101710;28;20566;-45
2021/12/07 04:57:55;;;;;;;1.30;0.97;;;4.10;94.70;;;;;;5101324;28;20925;-45
2021/12/07 05:00:23;;;;;;;1.43;1.17;;;4.20;94.70;;;;;;5101736;28;20430;-45
2021/12/07 05:03:00;;;;;;;1.67;1.00;;;4.20;94.70;;;;;;5101164;28;20618;-46
2021/12/07 05:05:31;;;;;;;1.37;1.00;;;4.20;94.60;;;;;;5101103;28;20453;-47
2021/12/07 05:08:00;;;;;;;1.60;1.17;;;4.20;94.60;;;;;;5100285;28;20458;-48
2021/12/07 05:11:24;;;;;;;1.20;1.00;;;4.20;94.50;;;;;;5115695;28;20517;-47
2021/12/07 05:39:47;;;;;;;1.40;1.07;;;4.50;93.40;;;;;;5114874;28;20456;-47
2021/12/07 05:42:13;;;;;;;1.27;1.10;;;4.50;93.40;;;;;;5111906;28;20472;-47
2021/12/07 05:44:39;;;;;;;1.70;1.07;;;4.50;93.40;;;;;;5121208;28;20175;-47
2021/12/07 05:47:05;;;;;;;1.60;1.10;;;4.50;93.40;;;;;;5122134;28;20425;-48
2021/12/07 05:49:30;;;;;;;1.53;1.00;;;4.50;93.30;;;;;;5122012;28;20211;-47
2021/12/07 05:51:57;;;;;;;1.93;0.87;;;4.50;93.30;;;;;;5119749;28;20434;-47
2021/12/07 05:54:22;;;;;;;1.20;1.00;;;4.50;93.20;;;;;;5120247;28;20315;-48
2021/12/07 05:56:48;;;;;;;3.60;1.13;;;4.50;93.20;;;;;;5118613;28;20537;-47
2021/12/07 05:59:14;;;;;;;2.20;0.97;;;4.50;93.20;;;;;;5119145;28;20491;-47
2021/12/07 06:01:40;;;;;;;2.67;1.10;;;4.50;93.10;;;;;;5119647;28;20258;-47
2021/12/07 06:04:06;;;;;;;2.43;1.20;;;4.50;93.10;;;;;;5119588;28;20449;-47
2021/12/07 06:06:31;;;;;;;2.20;1.07;;;4.50;93.10;;;;;;5119449;28;20184;-47
2021/12/07 06:08:57;;;;;;;2.40;0.90;;;4.50;93.10;;;;;;5119276;28;20473;-47
2021/12/07 06:11:24;;;;;;;1.70;1.53;;;4.50;93.10;;;;;;5118435;28;20183;-46
2021/12/07 06:13:50;;;;;;;1.70;1.10;;;4.50;93.10;;;;;;5117733;27;20203;-46
2021/12/07 06:16:16;;;;;;;3.53;1.47;;;4.50;93.10;;;;;;5117947;28;20426;-46
2021/12/07 06:18:43;;;;;;;2.47;1.20;;;4.50;93.10;;;;;;5117526;28;20421;-46
2021/12/07 06:21:10;;;;;;;2.13;1.10;;;4.50;93.10;;;;;;5117322;28;20874;-47
2021/12/07 06:23:36;;;;;;;3.47;1.50;;;4.50;93.20;;;;;;5118059;28;20424;-46
2021/12/07 06:26:02;;;;;;;3.03;1.53;;;4.40;93.20;;;;;;5117678;28;20897;-46
2021/12/07 06:28:28;;;;;;;3.50;1.57;;;4.40;93.20;;;;;;5117987;28;20468;-46
2021/12/07 06:30:54;;;;;;;2.30;1.13;;;4.40;93.30;;;;;;5119630;28;20418;-46
2021/12/07 06:33:22;;;;;;;3.83;1.40;;;4.40;93.30;;;;;;5120385;28;20214;-46
2021/12/07 06:35:49;;;;;;;1.37;0.97;;;4.40;93.40;;;;;;5118856;28;20418;-46
2021/12/07 06:38:17;;;;;;;2.50;1.43;;;4.40;93.40;;;;;;5111310;28;20419;-46
2021/12/07 06:40:43;;;;;;;2.40;1.70;;;4.40;93.40;;;;;;5118002;28;21014;-46
2021/12/07 06:43:09;;;;;;;2.93;1.37;;;4.40;93.40;;;;;;5118149;28;20412;-46
2021/12/07 06:45:35;;;;;;;2.80;1.27;;;4.40;93.50;;;;;;5116993;28;20417;-46
2021/12/07 06:48:01;;;;;;;3.20;1.63;;;4.40;93.50;;;;;;5118132;28;20212;-46
2021/12/07 06:50:26;;;;;;;2.80;1.60;;;4.40;93.80;;;;;;5119316;28;20179;-46
2021/12/07 06:52:52;;;;;;;3.47;2.00;;;4.40;93.50;;;;;;5117313;28;20249;-46
2021/12/07 06:55:20;;;;;;;2.30;1.97;;;4.40;93.50;;;;;;5117444;28;20320;-45
2021/12/07 06:57:46;;;;;;;2.83;2.30;;;4.50;93.50;;;;;;5115428;28;20850;-45
2021/12/07 07:00:12;;;;;;;2.40;2.20;;;4.50;93.50;;;;;;5115577;28;20410;-45
2021/12/07 07:02:38;;;;;;;3.00;1.90;;;4.50;93.50;;;;;;5110695;28;20457;-46
2021/12/07 07:05:04;;;;;;;4.30;2.50;;;4.50;93.50;;;;;;5116560;28;20475;-46
2021/12/07 07:07:33;;;;;;;4.67;2.63;;;4.50;93.40;;;;;;5116574;28;20475;-46
2021/12/07 07:09:58;;;;;;;2.73;2.20;;;4.50;93.50;;;;;;5116591;28;20425;-46
2021/12/07 07:12:24;;;;;;;5.80;2.67;;;4.60;93.60;;;;;;5116595;28;20499;-46
2021/12/07 07:14:50;;;;;;;4.87;1.97;;;4.60;93.50;;;;;;5117301;28;20596;-46
2021/12/07 07:17:15;;;;;;;6.30;2.23;;;4.60;93.40;;;;;;5117679;28;20515;-46
2021/12/07 07:19:41;;;;;;;3.43;1.97;;;4.60;93.40;;;;;;5118855;28;20215;-46
2021/12/07 07:22:07;;;;;;;3.80;1.80;;;4.60;93.30;;;;;;5118609;28;20184;-46
2021/12/07 07:24:33;;;;;;;3.70;2.63;;;4.70;93.30;;;;;;5119297;28;20190;-46
2021/12/07 07:26:59;;;;;;;5.73;2.17;;;4.70;93.20;;;;;;5119581;28;20262;-46
2021/12/07 07:29:26;;;;;;;3.60;2.47;;;4.70;93.20;;;;;;5119058;28;20465;-46
2021/12/07 07:31:53;;;;;;;4.80;2.50;;;4.70;93.10;;;;;;5117661;28;20445;-46
2021/12/07 07:34:18;;;;;;;5.33;2.37;;;4.80;93.10;;;;;;5117700;28;20429;-46
2021/12/07 07:36:44;;;;;;;4.37;2.77;;;4.80;93.00;;;;;;5110270;28;20756;-46
2021/12/07 07:39:10;;;;;;;3.80;2.30;;;4.90;93.00;;;;;;5113196;28;20203;-46
2021/12/07 07:41:36;;;;;;;7.63;2.47;;;5.00;93.00;;;;;;5115512;28;20422;-46
2021/12/07 07:44:02;;;;;;;6.60;2.53;;;5.00;92.80;;;;;;5117285;28;20475;-46
2021/12/07 07:46:28;;;;;;;2.60;2.00;;;5.10;92.80;;;;;;5115645;28;20180;-46
2021/12/07 07:48:54;;;;;;;4.10;2.37;;;5.10;92.70;;;;;;5115410;28;20466;-47
2021/12/07 07:51:20;;;;;;;4.70;2.33;;;5.10;92.50;;;;;;5116267;28;20841;-46
2021/12/07 07:53:46;;;;;;;1.67;1.20;;;5.20;92.50;;;;;;5116401;28;20313;-46
2021/12/07 07:56:11;;;;;;;6.10;1.87;;;5.50;97.30;;;;;;5115678;28;20461;-46
2021/12/07 07:58:37;;;;;;;4.30;1.87;;;6.70;99.90;;;;;;5115256;28;20421;-46
2021/12/07 08:01:03;;;;;;;2.10;1.50;;;7.90;99.90;;;;;;5115123;28;20274;-46
2021/12/07 08:03:29;;;;;;;3.00;1.70;;;8.80;99.90;;;;;;5115284;28;20406;-46
2021/12/07 08:05:55;;;;;;;3.03;2.20;;;9.10;99.90;;;;;;5116636;28;20430;-46
2021/12/07 08:08:21;;;;;;;3.43;2.20;;;9.10;99.90;;;;;;5116182;28;20497;-46
2021/12/07 08:10:47;;;;;;;3.40;2.37;;;8.80;97.20;;;;;;5115327;28;20176;-46
2021/12/07 08:13:14;;;;;;;5.77;2.80;;;8.50;95.00;;;;;;5116828;28;20256;-46
2021/12/07 08:15:42;;;;;;;2.90;2.10;;;8.20;93.60;;;;;;5116850;28;20579;-46
2021/12/07 08:18:10;;;;;;;5.70;2.23;;;7.80;92.50;;;;;;5116915;28;20429;-46
2021/12/07 08:20:36;;;;;;;4.93;2.60;;;7.50;91.70;;;;;;5117198;28;20771;-47
2021/12/07 08:23:04;;;;;;;2.40;2.00;;;7.30;91.40;;;;;;5116183;28;20430;-46
2021/12/07 08:25:31;;;;;;;2.83;2.00;;;7.10;91.20;;;;;;5115284;28;20449;-46
2021/12/07 08:27:57;;;;;;;3.20;2.47;;;7.10;91.20;;;;;;5114626;28;20488;-47
2021/12/07 08:30:23;;;;;;;4.33;2.20;;;7.30;91.10;;;;;;5114939;28;20417;-46
2021/12/07 08:32:49;;;;;;;3.00;2.20;;;7.60;91.00;;;;;;5114937;28;20511;-46
2021/12/07 08:35:16;;;;;;;2.73;1.90;;;8.10;90.40;;;;;;5115763;28;20264;-46
2021/12/07 08:37:46;;;;;;;5.20;2.53;;;8.60;89.50;;;;;;5116322;28;20183;-47
2021/12/07 08:40:19;;;;;;;5.70;3.20;;;9.20;88.00;;;;;;5116160;28;20429;-46
2021/12/07 08:42:45;;;;;;;5.50;2.50;;;9.80;86.10;;;;;;5116439;28;20444;-47
2021/12/07 08:45:10;;;;;;;2.90;1.70;;;10.40;82.20;;;;;;5116732;28;20499;-47
2021/12/07 08:47:36;;;;;;;2.80;1.60;;;10.90;79.90;;;;;;5115763;28;20495;-47
2021/12/07 08:50:05;;;;;;;3.20;1.80;;;11.40;77.30;;;;;;5116320;28;20187;-47
2021/12/07 08:52:31;;;;;;;4.27;2.07;;;11.90;74.30;;;;;;5116259;28;20885;-47
2021/12/07 09:00:29;;;;;;;3.10;1.90;;;13.10;65.90;;;;;;5115249;28;20404;-47
2021/12/07 09:02:55;;;;;;;4.63;2.00;;;13.60;63.90;;;;;;5114872;28;20453;-47
2021/12/07 09:05:21;;;;;;;4.37;2.43;;;14.00;62.60;;;;;;5113001;28;20428;-47
2021/12/07 09:07:47;;;;;;;3.77;1.80;;;14.60;60.00;;;;;;5113941;28;20813;-47
2021/12/07 09:10:13;;;;;;;4.83;2.20;;;15.80;57.00;;;;;;5115233;28;20189;-47
2021/12/07 09:12:39;;;;;;;3.40;1.80;;;17.20;53.20;;;;;;5113914;28;20172;-47
2021/12/07 09:15:05;;;;;;;3.53;1.93;;;18.60;50.40;;;;;;5114328;28;20420;-47
2021/12/07 09:17:31;;;;;;;3.83;2.00;;;19.90;47.70;;;;;;5115174;28;20745;-47
2021/12/07 09:19:57;;;;;;;2.47;1.57;;;21.20;44.60;;;;;;5115328;28;20456;-47
2021/12/07 09:22:22;;;;;;;5.07;2.33;;;22.30;41.80;;;;;;5119001;28;20265;-47
2021/12/07 09:24:48;;;;;;;3.47;1.80;;;23.00;40.00;;;;;;5119372;28;20175;-47
2021/12/07 09:27:14;;;;;;;4.43;2.40;;;23.80;38.80;;;;;;5120484;28;20241;-48
2021/12/07 09:29:39;;;;;;;4.57;2.57;;;24.60;37.60;;;;;;5119966;28;20203;-48
2021/12/07 09:32:05;;;;;;;3.27;2.30;;;25.70;36.10;;;;;;5115309;28;20601;-48
2021/12/07 09:34:31;;;;;;;3.10;1.90;;;26.60;34.60;;;;;;5118557;28;20478;-48
2021/12/07 09:36:57;;;;;;;3.10;1.63;;;27.20;33.40;;;;;;5118407;28;20472;-48
2021/12/07 09:39:23;;;;;;;2.93;1.77;;;27.20;32.80;;;;;;5114743;28;20851;-48
2021/12/07 09:41:49;;;;;;;4.17;2.50;;;26.20;32.00;;;;;;5118211;28;20180;-47
2021/12/07 09:44:15;;;;;;;4.20;1.80;;;25.10;32.70;;;;;;5119478;28;20459;-47
2021/12/07 09:46:42;;;;;;;2.80;1.50;;;25.20;32.90;;;;;;5116566;28;20879;-48
2021/12/07 09:49:09;;;;;;;2.33;1.77;;;26.00;32.50;;;;;;5098698;28;20506;-48
2021/12/07 09:51:35;;;;;;;3.20;1.73;;;27.00;31.60;;;;;;5098561;28;20434;-48
2021/12/07 09:54:02;;;;;;;2.70;1.90;;;27.90;31.10;;;;;;5098925;28;20471;-48
2021/12/07 09:56:28;;;;;;;5.63;1.93;;;28.80;30.10;;;;;;5098556;28;20419;-48
2021/12/07 09:58:55;;;;;;;2.20;1.40;;;29.00;29.50;;;;;;5097975;28;20495;-48
2021/12/07 10:01:23;;;;;;;3.07;2.00;;;29.20;29.10;;;;;;5099079;28;20438;-48
2021/12/07 10:03:49;;;;;;;4.50;2.20;;;28.50;28.90;;;;;;5098758;28;20452;-48
2021/12/07 10:06:15;;;;;;;4.70;2.27;;;27.40;29.00;;;;;;5099172;28;20423;-48
2021/12/07 10:08:41;;;;;;;2.60;1.87;;;26.20;29.50;;;;;;5113753;28;21084;-48
2021/12/07 10:11:09;;;;;;;3.20;1.90;;;25.10;30.20;;;;;;5117969;28;20501;-48
2021/12/07 10:13:35;;;;;;;4.00;1.97;;;25.10;30.70;;;;;;5118700;28;20429;-47
2021/12/07 10:16:04;;;;;;;6.50;3.03;;;25.10;30.70;;;;;;5118325;28;20420;-48
2021/12/07 10:18:32;;;;;;;4.27;2.20;;;24.30;30.50;;;;;;5118249;28;20469;-48
2021/12/07 10:21:09;;;;;;;3.87;2.27;;;23.70;31.30;;;;;;5118360;28;20406;-47
2021/12/07 10:23:41;;;;;;;3.67;2.10;;;23.70;31.70;;;;;;5115286;28;20442;-48
2021/12/07 10:26:13;;;;;;;2.70;1.57;;;23.50;31.80;;;;;;5119060;28;20767;-48
2021/12/07 10:28:40;;;;;;;2.87;1.77;;;23.00;33.30;;;;;;5117380;28;20462;-47
2021/12/07 10:31:08;;;;;;;4.40;2.10;;;22.30;37.30;;;;;;5118187;28;20410;-48
2021/12/07 10:33:58;;;;;;;3.83;2.13;;;22.10;38.00;;;;;;5118296;28;20726;-48
2021/12/07 10:36:34;;;;;;;4.20;2.30;;;22.10;35.20;;;;;;5117647;28;20427;-48
2021/12/07 10:39:04;;;;;;;4.53;2.43;;;22.70;33.80;;;;;;5118173;28;20442;-43
2021/12/07 10:41:33;;;;;;;3.10;1.73;;;23.40;33.00;;;;;;5117912;28;20418;-42
2021/12/07 10:44:13;;;;;;;5.83;1.73;;;24.00;32.00;;;;;;5117059;28;20764;-42
2021/12/07 10:46:43;;;;;;;4.13;1.63;;;25.00;36.30;;;;;;5116437;28;20406;-42
2021/12/07 10:49:09;;;;;;;2.90;1.50;;;26.40;36.20;;;;;;5117884;28;20543;-42
2021/12/07 10:51:34;;;;;;;4.07;2.10;;;27.30;34.60;;;;;;5117938;28;20423;-42
2021/12/07 10:54:00;;;;;;;4.17;1.70;;;27.20;33.70;;;;;;5116753;28;20297;-45
2021/12/07 10:56:36;;;;;;;3.10;1.30;;;26.70;34.70;;;;;;5115567;28;20226;-41
2021/12/07 10:59:11;;;;;;;3.87;2.07;;;25.90;36.60;;;;;;5111731;28;20184;-41
2021/12/07 11:01:41;;;;;;;3.83;1.60;;;25.60;36.40;;;;;;5101715;28;20426;-40
2021/12/07 11:04:35;;;;;;;2.60;1.53;;;25.50;36.40;;;;;;5095974;28;20443;-40
2021/12/07 11:07:25;;;;;;;2.83;1.83;;;25.90;35.50;;;;;;5096960;28;20442;-42
2021/12/07 11:10:12;;;;;;;5.07;1.50;;;27.50;32.70;;;;;;5111644;28;20809;-41
2021/12/07 11:12:47;;;;;;;2.37;1.50;;;29.50;31.80;;;;;;5118817;28;20393;-42
2021/12/07 11:15:19;;;;;;;3.67;1.97;;;31.10;30.00;;;;;;5118467;28;20481;-42
2021/12/07 11:17:45;;;;;;;2.40;1.60;;;32.50;29.20;;;;;;5118546;28;20874;-42
2021/12/07 11:20:12;;;;;;;3.90;1.67;;;33.50;28.00;;;;;;5118288;28;20534;-42
2021/12/07 11:22:41;;;;;;;2.37;1.60;;;34.20;27.40;;;;;;5116766;28;20445;-42
2021/12/07 11:31:21;;;;;;;2.90;1.43;;;35.40;25.50;;;;;;5116939;28;20443;-39
2021/12/07 11:33:49;;;;;;;6.30;2.27;;;35.10;25.90;;;;;;5117252;28;20419;-43
2021/12/07 11:36:38;;;;;;;6.00;2.17;;;33.80;26.20;;;;;;5115967;28;20426;-42
2021/12/07 11:39:42;;;;;;;3.43;2.27;;;31.80;26.50;;;;;;5076269;28;20827;-39
2021/12/07 11:42:22;;;;;;;3.27;1.60;;;29.60;27.90;;;;;;5115972;28;20402;-40
2021/12/07 11:44:52;;;;;;;2.73;1.80;;;27.60;29.10;;;;;;5113715;28;20821;-42
2021/12/07 11:47:30;;;;;;;2.80;1.80;;;26.00;30.70;;;;;;5110990;28;20454;-40
2021/12/07 11:50:10;;;;;;;2.30;1.60;;;25.20;31.80;;;;;;5115183;28;20522;-41
2021/12/07 11:52:36;;;;;;;2.90;1.70;;;24.60;32.50;;;;;;5115524;28;20393;-39
2021/12/07 11:55:05;;;;;;;4.27;1.70;;;24.10;32.60;;;;;;5115382;28;21194;-42
2021/12/07 11:57:31;;;;;;;3.73;1.83;;;23.90;32.70;;;;;;5099376;28;20509;-41
2021/12/07 11:59:57;;;;;;;2.67;1.33;;;23.90;32.90;;;;;;5115356;28;20430;-40
2021/12/07 12:02:24;;;;;;;2.33;1.47;;;23.50;33.40;;;;;;5116473;28;20502;-40
2021/12/07 12:04:50;;;;;;;2.93;1.17;;;23.00;34.10;;;;;;5115563;28;20462;-42
2021/12/07 12:07:19;;;;;;;3.40;1.57;;;22.50;33.40;;;;;;5114966;28;20419;-42
2021/12/07 12:09:48;;;;;;;2.20;1.40;;;21.70;32.50;;;;;;5111684;28;20272;-44
2021/12/07 12:12:35;;;;;;;3.03;1.30;;;21.00;32.60;;;;;;5094681;28;20732;-44
2021/12/07 12:15:43;;;;;;;2.90;1.70;;;21.40;33.00;;;;;;5095616;28;20983;-42
2021/12/07 12:18:39;;;;;;;7.17;2.10;;;22.10;32.20;;;;;;5106659;28;20451;-42
2021/12/07 12:21:37;;;;;;;5.87;1.70;;;22.30;31.70;;;;;;5116171;28;21039;-43
2021/12/07 12:24:04;;;;;;;3.53;1.57;;;23.10;31.60;;;;;;5115512;28;20425;-45
2021/12/07 12:26:30;;;;;;;4.13;1.60;;;23.90;30.90;;;;;;5115095;28;20397;-44
2021/12/07 12:28:56;;;;;;;3.57;1.53;;;24.90;30.40;;;;;;5116004;28;20561;-44
2021/12/07 12:31:47;;;;;;;2.70;1.43;;;25.20;29.50;;;;;;5094107;28;20851;-45
2021/12/07 12:34:23;;;;;;;4.43;1.40;;;24.80;29.00;;;;;;5094646;28;20754;-46
2021/12/07 12:37:02;;;;;;;4.77;1.60;;;24.30;29.00;;;;;;5094480;28;20485;-44
2021/12/07 12:39:57;;;;;;;2.30;1.20;;;24.50;29.50;;;;;;5105609;28;20472;-44
2021/12/07 12:42:41;;;;;;;2.60;1.10;;;24.80;29.30;;;;;;5115539;28;20422;-45
2021/12/07 12:45:25;;;;;;;2.93;1.20;;;25.00;29.30;;;;;;5097669;28;20417;-44
2021/12/07 12:48:13;;;;;;;2.23;1.30;;;25.00;29.10;;;;;;5114472;28;20567;-44
2021/12/07 12:50:49;;;;;;;5.00;1.63;;;24.70;28.80;;;;;;5114431;28;20414;-44
2021/12/07 12:53:25;;;;;;;3.60;1.83;;;24.10;29.00;;;;;;5113988;28;20847;-45
2021/12/07 12:55:50;;;;;;;2.80;1.83;;;23.10;29.20;;;;;;5115889;28;20522;-43
2021/12/07 12:58:36;;;;;;;4.20;1.60;;;22.10;29.50;;;;;;5116967;28;20532;-43
2021/12/07 13:01:25;;;;;;;2.10;1.27;;;21.00;30.00;;;;;;5115756;28;20193;-42
2021/12/07 13:04:22;;;;;;;3.27;1.90;;;20.00;31.10;;;;;;5116663;28;20427;-42
2021/12/07 13:07:01;;;;;;;3.07;1.43;;;19.20;32.20;;;;;;5117358;28;20424;-43
2021/12/07 13:09:39;;;;;;;4.00;1.50;;;18.50;33.00;;;;;;5118060;28;20478;-44
2021/12/07 13:12:09;;;;;;;2.50;1.97;;;17.90;33.50;;;;;;5117811;28;20418;-44
2021/12/07 13:14:49;;;;;;;4.20;1.87;;;17.40;34.50;;;;;;5118871;28;20420;-40
2021/12/07 13:17:24;;;;;;;5.80;2.40;;;16.90;35.20;;;;;;5120116;28;20821;-45
2021/12/07 13:20:14;;;;;;;3.43;1.90;;;16.50;35.70;;;;;;5120138;28;20410;-43
2021/12/07 13:23:00;;;;;;;4.03;1.40;;;16.20;36.40;;;;;;5117056;28;20486;-42
2021/12/07 13:25:39;;;;;;;4.40;1.60;;;15.90;36.70;;;;;;5119990;28;20650;-42
2021/12/07 13:28:42;;;;;;;3.23;1.70;;;15.70;36.80;;;;;;5118648;28;20453;-41
2021/12/07 13:31:18;;;;;;;2.87;1.30;;;15.70;36.80;;;;;;5117829;28;20405;-42
2021/12/07 13:33:55;;;;;;;3.80;1.87;;;16.40;37.10;;;;;;5118489;28;20413;-43
2021/12/07 13:36:41;;;;;;;3.07;1.67;;;17.20;37.20;;;;;;5118391;28;20448;-43
2021/12/07 13:39:10;;;;;;;3.60;1.50;;;17.90;36.70;;;;;;5117545;28;20425;-43
2021/12/07 13:41:59;;;;;;;3.63;1.87;;;18.30;35.70;;;;;;5116334;28;20501;-45
2021/12/07 13:44:28;;;;;;;3.00;1.27;;;18.70;34.90;;;;;;5116816;28;20750;-43
2021/12/07 13:47:00;;;;;;;2.30;1.40;;;19.50;34.20;;;;;;5099501;28;20413;-44
2021/12/07 13:49:26;;;;;;;2.90;1.33;;;20.30;33.70;;;;;;5118253;28;20465;-45
2021/12/07 13:51:52;;;;;;;3.30;1.50;;;21.20;33.30;;;;;;5118674;28;20759;-46
2021/12/07 13:54:20;;;;;;;2.70;1.20;;;21.80;32.30;;;;;;5118730;28;20480;-45
2021/12/07 13:56:48;;;;;;;4.80;1.40;;;21.80;31.50;;;;;;5118965;27;20502;-46
2021/12/07 13:59:18;;;;;;;3.50;1.53;;;21.20;31.00;;;;;;5117849;28;20442;-46
2021/12/07 14:01:52;;;;;;;4.00;1.40;;;20.60;31.40;;;;;;5116005;28;20427;-46
2021/12/07 14:04:19;;;;;;;3.70;1.30;;;20.60;31.90;;;;;;5116364;28;20448;-41
2021/12/07 14:06:47;;;;;;;6.23;1.63;;;20.80;31.90;;;;;;5116977;28;20425;-43
2021/12/07 14:09:13;;;;;;;1.90;1.30;;;21.20;31.90;;;;;;5115270;28;20938;-44
2021/12/07 14:11:40;;;;;;;2.13;1.10;;;21.60;31.80;;;;;;5117036;28;20693;-44
2021/12/07 14:14:11;;;;;;;3.23;1.40;;;22.10;31.60;;;;;;5118235;28;20516;-42
2021/12/07 14:16:37;;;;;;;2.90;1.50;;;22.40;31.00;;;;;;5118350;28;20469;-44
2021/12/07 14:19:03;;;;;;;3.20;1.57;;;22.60;30.50;;;;;;5118717;28;20463;-43
2021/12/07 14:21:30;;;;;;;2.07;1.17;;;22.70;30.10;;;;;;5119124;27;20905;-44
2021/12/07 14:24:04;;;;;;;2.30;1.27;;;22.70;30.00;;;;;;5117065;28;20430;-44
2021/12/07 14:26:36;;;;;;;3.70;1.50;;;22.80;30.00;;;;;;5118868;28;20818;-50
2021/12/07 14:29:18;;;;;;;2.43;1.20;;;22.90;30.00;;;;;;5119899;28;20462;-45
2021/12/07 14:32:05;;;;;;;2.90;1.40;;;23.00;30.20;;;;;;5117618;28;20462;-44
2021/12/07 14:34:31;;;;;;;2.67;1.47;;;23.00;29.90;;;;;;5116614;28;20432;-44
2021/12/07 14:37:06;;;;;;;4.10;1.37;;;22.90;29.70;;;;;;5118221;28;20406;-45
2021/12/07 14:39:40;;;;;;;3.50;1.63;;;22.80;29.70;;;;;;5106357;28;20430;-43
2021/12/07 14:42:11;;;;;;;2.27;1.30;;;22.60;29.90;;;;;;5096987;28;20405;-42
2021/12/07 14:44:39;;;;;;;2.33;1.00;;;22.20;30.00;;;;;;5097453;28;20419;-43
2021/12/07 14:47:07;;;;;;;4.07;1.53;;;21.70;30.00;;;;;;5096131;28;20709;-42
2021/12/07 14:49:44;;;;;;;3.77;1.57;;;21.20;30.40;;;;;;5095074;28;20459;-42
2021/12/07 14:52:19;;;;;;;3.27;2.53;;;20.60;30.50;;;;;;5096450;28;20886;-45
2021/12/07 14:54:45;;;;;;;4.10;2.80;;;19.90;30.70;;;;;;5098404;28;20543;-43
2021/12/07 14:57:12;;;;;;;3.83;3.00;;;19.40;31.10;;;;;;5092030;28;20812;-43